Hillsboro, WI (54634)

2:36 PM CDT on September 27, 2016 (GMT -0500)
Richwood Valley, WI | | Change Station

Elev 1107 ft 43.68 °N, 90.43 °W | Updated 10 minutes ago

Overcast
Overcast
58.1 °F
Feels Like 58.1 °F
N
4.0
Wind Variable Wind from SW

Today
High -- | Low -- °F
--% Chance of Precip.
Yesterday
High -- | Low -- °F
Precip. -- in
Pressure 29.74 in
Visibility 10.0 miles
Clouds Scattered Clouds 4400 ft
Overcast 5000 ft
Dew Point 45 °F
Humidity 62%
Rainfall 0.00 in
Snow Depth Not available.
6:55 AM 6:48 PM
Waning Crescent, 10% visible
METAR KC35 271915Z AUTO 30012G19KT 10SM SCT044 OVC050 15/07 A2974 RMK AO2 T01460066
Pressure 29.74 in
Visibility 10.0 miles
Clouds Scattered Clouds 4400 ft
Overcast 5000 ft
Dew Point 45 °F
Humidity 62%
Rainfall 0.00 in
Snow Depth Not available.
6:55 AM 6:48 PM
Waning Crescent, 10% visible
METAR KC35 271915Z AUTO 30012G19KT 10SM SCT044 OVC050 15/07 A2974 RMK AO2 T01460066

10-Day Weather Forecast

Almanac

Astronomy

Sep. 27, 2016 Rise Set
Actual Time
Civil Twilight
Nautical Twilight
Astronomical Twilight
Moon
Length of Visible Light
Length of Day
Tomorrow will be .
, % of the Moon is Illuminated

Today's Extremes

State Highs State Lows

Community

WunderPhotos

Upload Photos

1,942,168 photos uploaded!

WunderBlog® & News

Nearby

Air Quality

  Air Quality AQ Index Pollutant
Not available.

Snow Depth

Station Depth Elevation

Earthquake Activity

City Distance Mag. Time & Date
Minimum magnitude displayed is 2.5.

Coastal Water Temperatures

Place Temperature

Stations

Nearby Weather Stations

Station Location Temp. Windchill Dew Point Humidity Wind Precip. Elev Updated Type
                   

Watches & Warnings

There are currently no watches in effect.